Decoded Metar for VOTV (TRIVANDRUM in INDIA) (IATA:TRV) | Meteo·Mobile Aviation Weather
aviador You're here:

VOTV Decoded Metar

TRIVANDRUM in INDIA
Report Time2019-03-23 21:30:00
UTC Time2019-03-23 21:40:35
Flight Rules ifr IFR
Wind020° at 04 kt
W.Decomp.*RWY 32: 1.8 kt HW 3.6 kt RCW
W.Rank020° ranks 15
Current wind is below 020° avg. (4.0)
Visibility3000 m
Phenomena:Haze
Clouds:Few 015 Hf
Expected CloudBase > 1,600 ft AGL from Temp-Dew spread
CeilingNone
Temp29°C (ISA +14)
Dew Point25°C (79% RH)
Heat Index34.5°C
QNH1009 hPa
Density Alt2,188 ft
Elevation26 ft
Report Wrong Elevation
Raw Report
METAR VOTV 232130Z 02004KT 3000 HZ FEW015 29/25 Q1009 NOSIG=####018000075####
SAIN90 VOCL 232130

Extra information for VOTV:More info

Metar Taf Metar & Taf Last 4 Metars F.Rules Stats Wind Profile Meteogram Temp Stats Airport Information Weather charts Add Link Nearby VenuesMetar ALERT Operation Metar Decoded Social comments